sensor_id;sensor_type;location;lat;lon;timestamp;temperature;humidity
5258;DHT22;2651;51.594;9.928;2022-09-01T00:01:01;15.60;1.00
5258;DHT22;2651;51.594;9.928;2022-09-01T00:02:03;15.50;1.00
5258;DHT22;2651;51.594;9.928;2022-09-01T00:03:08;15.50;1.00
5258;DHT22;2651;51.594;9.928;2022-09-01T00:04:14;15.50;1.00
5258;DHT22;2651;51.594;9.928;2022-09-01T00:05:17;15.50;1.00
5258;DHT22;2651;51.594;9.928;2022-09-01T00:06:20;15.40;1.00
5258;DHT22;2651;51.594;9.928;2022-09-01T00:07:25;15.40;1.00
5258;DHT22;2651;51.594;9.928;2022-09-01T00:08:26;15.40;1.00
5258;DHT22;2651;51.594;9.928;2022-09-01T00:09:28;15.40;1.00
5258;DHT22;2651;51.594;9.928;2022-09-01T00:10:30;15.40;1.00
5258;DHT22;2651;51.594;9.928;2022-09-01T00:11:32;15.40;1.00
5258;DHT22;2651;51.594;9.928;2022-09-01T00:12:34;15.40;1.00
5258;DHT22;2651;51.594;9.928;2022-09-01T00:13:36;15.30;1.00
5258;DHT22;2651;51.594;9.928;2022-09-01T00:14:39;15.20;1.00
5258;DHT22;2651;51.594;9.928;2022-09-01T00:15:42;15.10;1.00
5258;DHT22;2651;51.594;9.928;2022-09-01T00:16:44;15.10;1.00
5258;DHT22;2651;51.594;9.928;2022-09-01T00:17:48;15.00;1.00
5258;DHT22;2651;51.594;9.928;2022-09-01T00:18:52;14.90;1.00
5258;DHT22;2651;51.594;9.928;2022-09-01T00:19:54;14.90;1.00
5258;DHT22;2651;51.594;9.928;2022-09-01T00:20:55;14.90;1.00
5258;DHT22;2651;51.594;9.928;2022-09-01T00:22:00;14.70;1.00
5258;DHT22;2651;51.594;9.928;2022-09-01T00:23:02;14.70;1.00
5258;DHT22;2651;51.594;9.928;2022-09-01T00:24:05;14.60;1.00
5258;DHT22;2651;51.594;9.928;2022-09-01T00:25:08;14.60;1.00
5258;DHT22;2651;51.594;9.928;2022-09-01T00:27:13;14.70;1.00
5258;DHT22;2651;51.594;9.928;2022-09-01T00:28:15;14.50;1.00
5258;DHT22;2651;51.594;9.928;2022-09-01T00:29:16;14.60;1.00
5258;DHT22;2651;51.594;9.928;2022-09-01T00:30:19;14.60;1.00
5258;DHT22;2651;51.594;9.928;2022-09-01T00:31:22;14.60;1.00
5258;DHT22;2651;51.594;9.928;2022-09-01T00:32:23;14.50;1.00
5258;DHT22;2651;51.594;9.928;2022-09-01T00:33:26;14.40;1.00
5258;DHT22;2651;51.594;9.928;2022-09-01T00:34:27;14.40;1.00
5258;DHT22;2651;51.594;9.928;2022-09-01T00:35:29;14.30;1.00
5258;DHT22;2651;51.594;9.928;2022-09-01T00:36:37;14.30;1.00
5258;DHT22;2651;51.594;9.928;2022-09-01T00:37:39;14.30;1.00
5258;DHT22;2651;51.594;9.928;2022-09-01T00:38:41;14.30;1.00
5258;DHT22;2651;51.594;9.928;2022-09-01T00:39:43;14.30;1.00
5258;DHT22;2651;51.594;9.928;2022-09-01T00:40:44;14.30;1.00
5258;DHT22;2651;51.594;9.928;2022-09-01T00:41:46;14.20;1.00
5258;DHT22;2651;51.594;9.928;2022-09-01T00:42:50;14.30;1.00
5258;DHT22;2651;51.594;9.928;2022-09-01T00:43:57;14.30;1.00
5258;DHT22;2651;51.594;9.928;2022-09-01T00:44:59;14.30;1.00
5258;DHT22;2651;51.594;9.928;2022-09-01T00:46:03;14.20;1.00
5258;DHT22;2651;51.594;9.928;2022-09-01T00:47:05;14.20;1.00
5258;DHT22;2651;51.594;9.928;2022-09-01T00:48:10;14.20;1.00
5258;DHT22;2651;51.594;9.928;2022-09-01T00:49:20;14.10;1.00
5258;DHT22;2651;51.594;9.928;2022-09-01T00:50:22;14.10;1.00
5258;DHT22;2651;51.594;9.928;2022-09-01T00:51:27;14.00;1.00
5258;DHT22;2651;51.594;9.928;2022-09-01T00:52:50;14.00;1.00
5258;DHT22;2651;51.594;9.928;2022-09-01T00:53:53;14.00;1.00
5258;DHT22;2651;51.594;9.928;2022-09-01T00:55:00;13.90;1.00
5258;DHT22;2651;51.594;9.928;2022-09-01T00:56:04;13.90;1.00
5258;DHT22;2651;51.594;9.928;2022-09-01T00:57:11;13.90;1.00
5258;DHT22;2651;51.594;9.928;2022-09-01T00:58:13;13.90;1.00
5258;DHT22;2651;51.594;9.928;2022-09-01T00:59:21;13.90;1.00
5258;DHT22;2651;51.594;9.928;2022-09-01T01:00:27;13.80;1.00
5258;DHT22;2651;51.594;9.928;2022-09-01T01:01:30;13.70;1.00
5258;DHT22;2651;51.594;9.928;2022-09-01T01:02:32;13.80;1.00
5258;DHT22;2651;51.594;9.928;2022-09-01T01:03:35;13.90;1.00
5258;DHT22;2651;51.594;9.928;2022-09-01T01:04:37;13.90;1.00
5258;DHT22;2651;51.594;9.928;2022-09-01T01:05:44;13.90;1.00
5258;DHT22;2651;51.594;9.928;2022-09-01T01:06:55;13.90;1.00
5258;DHT22;2651;51.594;9.928;2022-09-01T01:08:03;13.90;1.00
5258;DHT22;2651;51.594;9.928;2022-09-01T01:09:05;13.90;1.00
5258;DHT22;2651;51.594;9.928;2022-09-01T01:10:10;14.00;1.00
5258;DHT22;2651;51.594;9.928;2022-09-01T01:11:14;14.00;1.00
5258;DHT22;2651;51.594;9.928;2022-09-01T01:12:19;14.10;1.00
5258;DHT22;2651;51.594;9.928;2022-09-01T01:13:21;14.10;1.00
5258;DHT22;2651;51.594;9.928;2022-09-01T01:14:25;14.10;1.00
5258;DHT22;2651;51.594;9.928;2022-09-01T01:15:32;14.10;1.00
5258;DHT22;2651;51.594;9.928;2022-09-01T01:16:34;14.10;1.00
5258;DHT22;2651;51.594;9.928;2022-09-01T01:17:36;14.10;1.00
5258;DHT22;2651;51.594;9.928;2022-09-01T01:18:38;14.10;1.00
5258;DHT22;2651;51.594;9.928;2022-09-01T01:19:48;14.10;1.00
5258;DHT22;2651;51.594;9.928;2022-09-01T01:21:14;14.10;1.00
5258;DHT22;2651;51.594;9.928;2022-09-01T01:23:07;14.10;1.00
5258;DHT22;2651;51.594;9.928;2022-09-01T01:24:30;14.10;1.00
5258;DHT22;2651;51.594;9.928;2022-09-01T01:25:53;14.00;1.00
5258;DHT22;2651;51.594;9.928;2022-09-01T01:26:56;14.00;1.00
5258;DHT22;2651;51.594;9.928;2022-09-01T01:28:11;14.00;1.00
5258;DHT22;2651;51.594;9.928;2022-09-01T01:29:13;14.00;1.00
5258;DHT22;2651;51.594;9.928;2022-09-01T01:30:17;14.00;1.00
5258;DHT22;2651;51.594;9.928;2022-09-01T01:31:20;14.00;1.00
5258;DHT22;2651;51.594;9.928;2022-09-01T01:32:23;13.90;1.00
5258;DHT22;2651;51.594;9.928;2022-09-01T01:33:31;13.90;1.00
5258;DHT22;2651;51.594;9.928;2022-09-01T01:34:33;13.90;1.00
5258;DHT22;2651;51.594;9.928;2022-09-01T01:35:35;13.80;1.00
5258;DHT22;2651;51.594;9.928;2022-09-01T01:36:37;13.80;1.00
5258;DHT22;2651;51.594;9.928;2022-09-01T01:37:42;13.80;1.00
5258;DHT22;2651;51.594;9.928;2022-09-01T01:38:48;13.80;1.00
5258;DHT22;2651;51.594;9.928;2022-09-01T01:39:50;13.70;1.00
5258;DHT22;2651;51.594;9.928;2022-09-01T01:40:52;13.70;1.00
5258;DHT22;2651;51.594;9.928;2022-09-01T01:41:56;13.60;1.00
5258;DHT22;2651;51.594;9.928;2022-09-01T01:42:59;13.60;1.00
5258;DHT22;2651;51.594;9.928;2022-09-01T01:44:04;13.60;1.00
5258;DHT22;2651;51.594;9.928;2022-09-01T01:45:06;13.50;1.00
5258;DHT22;2651;51.594;9.928;2022-09-01T01:46:10;13.50;1.00
5258;DHT22;2651;51.594;9.928;2022-09-01T01:47:12;13.40;1.00
5258;DHT22;2651;51.594;9.928;2022-09-01T01:48:14;13.40;1.00
5258;DHT22;2651;51.594;9.928;2022-09-01T01:49:26;13.40;1.00
5258;DHT22;2651;51.594;9.928;2022-09-01T01:50:32;13.40;1.00
5258;DHT22;2651;51.594;9.928;2022-09-01T01:51:36;13.30;1.00
5258;DHT22;2651;51.594;9.928;2022-09-01T01:52:38;13.30;1.00
5258;DHT22;2651;51.594;9.928;2022-09-01T01:53:47;13.30;1.00
5258;DHT22;2651;51.594;9.928;2022-09-01T01:54:52;13.30;1.00
5258;DHT22;2651;51.594;9.928;2022-09-01T01:55:54;13.30;1.00
5258;DHT22;2651;51.594;9.928;2022-09-01T01:56:59;13.20;1.00
5258;DHT22;2651;51.594;9.928;2022-09-01T01:58:01;13.20;1.00
5258;DHT22;2651;51.594;9.928;2022-09-01T01:59:02;13.20;1.00
5258;DHT22;2651;51.594;9.928;2022-09-01T02:00:07;13.20;1.10
5258;DHT22;2651;51.594;9.928;2022-09-01T02:01:11;13.20;2.30
5258;DHT22;2651;51.594;9.928;2022-09-01T02:02:13;13.20;2.40
5258;DHT22;2651;51.594;9.928;2022-09-01T02:03:17;13.20;5.50
5258;DHT22;2651;51.594;9.928;2022-09-01T02:04:20;13.20;5.10
5258;DHT22;2651;51.594;9.928;2022-09-01T02:05:26;13.10;2.50
5258;DHT22;2651;51.594;9.928;2022-09-01T02:06:28;13.10;6.20
5258;DHT22;2651;51.594;9.928;2022-09-01T02:07:32;13.10;8.20
5258;DHT22;2651;51.594;9.928;2022-09-01T02:08:36;13.10;9.50
5258;DHT22;2651;51.594;9.928;2022-09-01T02:09:39;13.10;9.60
5258;DHT22;2651;51.594;9.928;2022-09-01T02:10:46;13.10;6.40
5258;DHT22;2651;51.594;9.928;2022-09-01T02:11:48;13.20;6.10
5258;DHT22;2651;51.594;9.928;2022-09-01T02:12:54;13.20;1.00
5258;DHT22;2651;51.594;9.928;2022-09-01T02:13:56;13.00;5.60
5258;DHT22;2651;51.594;9.928;2022-09-01T02:14:58;13.00;11.50
5258;DHT22;2651;51.594;9.928;2022-09-01T02:16:04;13.00;11.70
5258;DHT22;2651;51.594;9.928;2022-09-01T02:17:07;12.90;13.70
5258;DHT22;2651;51.594;9.928;2022-09-01T02:18:11;13.00;16.60
5258;DHT22;2651;51.594;9.928;2022-09-01T02:19:15;13.00;18.20
5258;DHT22;2651;51.594;9.928;2022-09-01T02:20:21;13.00;16.90
5258;DHT22;2651;51.594;9.928;2022-09-01T02:21:24;13.00;16.00
5258;DHT22;2651;51.594;9.928;2022-09-01T02:22:27;13.10;12.00
5258;DHT22;2651;51.594;9.928;2022-09-01T02:23:29;13.10;10.50
5258;DHT22;2651;51.594;9.928;2022-09-01T02:24:31;13.10;11.00
5258;DHT22;2651;51.594;9.928;2022-09-01T02:25:33;13.10;12.80
5258;DHT22;2651;51.594;9.928;2022-09-01T02:26:39;13.10;14.40
5258;DHT22;2651;51.594;9.928;2022-09-01T02:27:43;13.10;11.90
5258;DHT22;2651;51.594;9.928;2022-09-01T02:28:46;13.20;11.70
5258;DHT22;2651;51.594;9.928;2022-09-01T02:29:55;13.10;9.80
5258;DHT22;2651;51.594;9.928;2022-09-01T02:30:59;13.20;11.20
5258;DHT22;2651;51.594;9.928;2022-09-01T02:32:02;13.10;7.30
5258;DHT22;2651;51.594;9.928;2022-09-01T02:33:04;13.20;5.90
5258;DHT22;2651;51.594;9.928;2022-09-01T02:34:07;13.20;2.60
5258;DHT22;2651;51.594;9.928;2022-09-01T02:35:11;13.20;1.60
5258;DHT22;2651;51.594;9.928;2022-09-01T02:36:16;13.20;1.00
5258;DHT22;2651;51.594;9.928;2022-09-01T02:37:21;13.20;1.20
5258;DHT22;2651;51.594;9.928;2022-09-01T02:38:26;13.20;1.40
5258;DHT22;2651;51.594;9.928;2022-09-01T02:39:30;13.10;1.00
5258;DHT22;2651;51.594;9.928;2022-09-01T02:40:34;13.10;6.60
5258;DHT22;2651;51.594;9.928;2022-09-01T02:41:36;13.00;2.90
5258;DHT22;2651;51.594;9.928;2022-09-01T02:42:38;12.90;11.80
5258;DHT22;2651;51.594;9.928;2022-09-01T02:43:43;12.80;12.70
5258;DHT22;2651;51.594;9.928;2022-09-01T02:44:46;12.80;20.30
5258;DHT22;2651;51.594;9.928;2022-09-01T02:45:50;12.80;22.20
5258;DHT22;2651;51.594;9.928;2022-09-01T02:46:58;12.80;23.20
5258;DHT22;2651;51.594;9.928;2022-09-01T02:48:02;12.90;23.60
5258;DHT22;2651;51.594;9.928;2022-09-01T02:49:13;12.90;20.70
5258;DHT22;2651;51.594;9.928;2022-09-01T02:50:20;12.90;19.90
5258;DHT22;2651;51.594;9.928;2022-09-01T02:51:23;12.90;18.70
5258;DHT22;2651;51.594;9.928;2022-09-01T02:52:27;12.90;15.40
5258;DHT22;2651;51.594;9.928;2022-09-01T02:53:36;12.90;14.50
5258;DHT22;2651;51.594;9.928;2022-09-01T02:54:39;12.90;14.70
5258;DHT22;2651;51.594;9.928;2022-09-01T02:55:42;13.00;15.70
5258;DHT22;2651;51.594;9.928;2022-09-01T02:56:45;13.00;9.60
5258;DHT22;2651;51.594;9.928;2022-09-01T02:57:49;13.00;10.20
5258;DHT22;2651;51.594;9.928;2022-09-01T02:58:52;13.00;11.30
5258;DHT22;2651;51.594;9.928;2022-09-01T02:59:54;12.90;12.40
5258;DHT22;2651;51.594;9.928;2022-09-01T03:00:59;13.00;8.10
5258;DHT22;2651;51.594;9.928;2022-09-01T03:02:03;12.90;3.60
5258;DHT22;2651;51.594;9.928;2022-09-01T03:03:07;12.90;7.20
5258;DHT22;2651;51.594;9.928;2022-09-01T03:04:10;12.90;8.50
5258;DHT22;2651;51.594;9.928;2022-09-01T03:05:13;12.90;8.40
5258;DHT22;2651;51.594;9.928;2022-09-01T03:06:17;12.90;9.70
5258;DHT22;2651;51.594;9.928;2022-09-01T03:07:21;12.80;9.90
5258;DHT22;2651;51.594;9.928;2022-09-01T03:08:24;12.80;8.50
5258;DHT22;2651;51.594;9.928;2022-09-01T03:09:26;12.80;9.70
5258;DHT22;2651;51.594;9.928;2022-09-01T03:10:31;12.80;11.50
5258;DHT22;2651;51.594;9.928;2022-09-01T03:11:35;12.70;11.20
5258;DHT22;2651;51.594;9.928;2022-09-01T03:12:37;12.60;13.20
5258;DHT22;2651;51.594;9.928;2022-09-01T03:13:40;12.60;16.00
5258;DHT22;2651;51.594;9.928;2022-09-01T03:14:42;12.50;14.80
5258;DHT22;2651;51.594;9.928;2022-09-01T03:15:44;12.50;18.20
5258;DHT22;2651;51.594;9.928;2022-09-01T03:16:45;12.50;19.90
5258;DHT22;2651;51.594;9.928;2022-09-01T03:17:48;12.40;22.60
5258;DHT22;2651;51.594;9.928;2022-09-01T03:18:50;12.40;24.30
5258;DHT22;2651;51.594;9.928;2022-09-01T03:19:52;12.40;24.50
5258;DHT22;2651;51.594;9.928;2022-09-01T03:20:55;12.30;27.90
5258;DHT22;2651;51.594;9.928;2022-09-01T03:21:56;12.30;29.80
5258;DHT22;2651;51.594;9.928;2022-09-01T03:23:06;12.30;30.70
5258;DHT22;2651;51.594;9.928;2022-09-01T03:24:13;12.30;31.30
5258;DHT22;2651;51.594;9.928;2022-09-01T03:25:17;12.30;35.50
5258;DHT22;2651;51.594;9.928;2022-09-01T03:26:20;12.30;39.00
5258;DHT22;2651;51.594;9.928;2022-09-01T03:27:22;12.30;35.90
5258;DHT22;2651;51.594;9.928;2022-09-01T03:28:25;12.30;36.30
5258;DHT22;2651;51.594;9.928;2022-09-01T03:29:26;12.30;36.70
5258;DHT22;2651;51.594;9.928;2022-09-01T03:30:30;12.30;37.10
5258;DHT22;2651;51.594;9.928;2022-09-01T03:31:32;12.30;35.80
5258;DHT22;2651;51.594;9.928;2022-09-01T03:32:33;12.30;30.60
5258;DHT22;2651;51.594;9.928;2022-09-01T03:33:35;12.30;34.20
5258;DHT22;2651;51.594;9.928;2022-09-01T03:34:37;12.30;38.50
5258;DHT22;2651;51.594;9.928;2022-09-01T03:35:39;12.30;37.30
5258;DHT22;2651;51.594;9.928;2022-09-01T03:36:40;12.30;36.70
5258;DHT22;2651;51.594;9.928;2022-09-01T03:37:50;12.30;34.00
5258;DHT22;2651;51.594;9.928;2022-09-01T03:38:53;12.30;34.30
5258;DHT22;2651;51.594;9.928;2022-09-01T03:39:55;12.30;33.60
5258;DHT22;2651;51.594;9.928;2022-09-01T03:41:04;12.30;34.40
5258;DHT22;2651;51.594;9.928;2022-09-01T03:42:06;12.30;31.90
5258;DHT22;2651;51.594;9.928;2022-09-01T03:43:11;12.30;30.80
5258;DHT22;2651;51.594;9.928;2022-09-01T03:44:14;12.30;33.40
5258;DHT22;2651;51.594;9.928;2022-09-01T03:45:17;12.30;35.60
5258;DHT22;2651;51.594;9.928;2022-09-01T03:46:21;12.20;33.10
5258;DHT22;2651;51.594;9.928;2022-09-01T03:47:22;12.20;33.20
5258;DHT22;2651;51.594;9.928;2022-09-01T03:48:25;12.20;32.60
5258;DHT22;2651;51.594;9.928;2022-09-01T03:49:29;12.10;34.00
5258;DHT22;2651;51.594;9.928;2022-09-01T03:50:30;12.10;40.50
5258;DHT22;2651;51.594;9.928;2022-09-01T03:51:32;12.10;41.10
5258;DHT22;2651;51.594;9.928;2022-09-01T03:52:34;12.10;39.00
5258;DHT22;2651;51.594;9.928;2022-09-01T03:53:37;12.00;40.90
5258;DHT22;2651;51.594;9.928;2022-09-01T03:54:39;12.00;45.90
5258;DHT22;2651;51.594;9.928;2022-09-01T03:55:43;12.00;45.50
5258;DHT22;2651;51.594;9.928;2022-09-01T03:56:45;12.00;47.50
5258;DHT22;2651;51.594;9.928;2022-09-01T03:57:49;12.00;48.60
5258;DHT22;2651;51.594;9.928;2022-09-01T03:58:52;12.00;49.20
5258;DHT22;2651;51.594;9.928;2022-09-01T03:59:55;12.00;50.50
5258;DHT22;2651;51.594;9.928;2022-09-01T04:01:11;12.00;50.40
5258;DHT22;2651;51.594;9.928;2022-09-01T04:02:14;12.00;52.10
5258;DHT22;2651;51.594;9.928;2022-09-01T04:03:16;11.90;48.90
5258;DHT22;2651;51.594;9.928;2022-09-01T04:04:31;11.90;58.70
5258;DHT22;2651;51.594;9.928;2022-09-01T04:05:35;11.90;57.00
5258;DHT22;2651;51.594;9.928;2022-09-01T04:06:39;11.90;57.20
5258;DHT22;2651;51.594;9.928;2022-09-01T04:07:40;11.80;55.50
5258;DHT22;2651;51.594;9.928;2022-09-01T04:08:47;11.80;59.10
5258;DHT22;2651;51.594;9.928;2022-09-01T04:09:49;11.80;55.10
5258;DHT22;2651;51.594;9.928;2022-09-01T04:10:53;11.80;70.20
5258;DHT22;2651;51.594;9.928;2022-09-01T04:11:55;11.80;72.60
5258;DHT22;2651;51.594;9.928;2022-09-01T04:12:58;11.80;73.30
5258;DHT22;2651;51.594;9.928;2022-09-01T04:14:00;11.80;69.00
5258;DHT22;2651;51.594;9.928;2022-09-01T04:15:03;11.80;66.00
5258;DHT22;2651;51.594;9.928;2022-09-01T04:16:06;11.90;66.50
5258;DHT22;2651;51.594;9.928;2022-09-01T04:17:30;11.90;62.20
5258;DHT22;2651;51.594;9.928;2022-09-01T04:18:51;11.90;66.40
5258;DHT22;2651;51.594;9.928;2022-09-01T04:19:52;11.90;61.30
5258;DHT22;2651;51.594;9.928;2022-09-01T04:20:58;11.90;65.00
5258;DHT22;2651;51.594;9.928;2022-09-01T04:22:00;11.80;67.30
5258;DHT22;2651;51.594;9.928;2022-09-01T04:23:01;11.80;72.20
5258;DHT22;2651;51.594;9.928;2022-09-01T04:24:11;11.80;72.50
5258;DHT22;2651;51.594;9.928;2022-09-01T04:25:19;11.80;76.40
5258;DHT22;2651;51.594;9.928;2022-09-01T04:26:23;11.80;79.70
5258;DHT22;2651;51.594;9.928;2022-09-01T04:27:28;11.80;80.60
5258;DHT22;2651;51.594;9.928;2022-09-01T04:28:31;11.70;87.10
5258;DHT22;2651;51.594;9.928;2022-09-01T04:29:34;11.70;88.30
5258;DHT22;2651;51.594;9.928;2022-09-01T04:30:39;11.70;87.40
5258;DHT22;2651;51.594;9.928;2022-09-01T04:31:47;11.80;83.20
5258;DHT22;2651;51.594;9.928;2022-09-01T04:32:54;11.80;81.70
5258;DHT22;2651;51.594;9.928;2022-09-01T04:33:57;11.80;81.20
5258;DHT22;2651;51.594;9.928;2022-09-01T04:34:59;11.80;77.60
5258;DHT22;2651;51.594;9.928;2022-09-01T04:36:03;11.80;73.30
5258;DHT22;2651;51.594;9.928;2022-09-01T04:37:11;11.80;73.60
5258;DHT22;2651;51.594;9.928;2022-09-01T04:38:15;11.80;82.70
5258;DHT22;2651;51.594;9.928;2022-09-01T04:39:17;11.80;82.70
5258;DHT22;2651;51.594;9.928;2022-09-01T04:40:19;11.80;84.00
5258;DHT22;2651;51.594;9.928;2022-09-01T04:41:30;11.80;79.40
5258;DHT22;2651;51.594;9.928;2022-09-01T04:42:32;11.90;71.20
5258;DHT22;2651;51.594;9.928;2022-09-01T04:43:35;11.80;76.40
5258;DHT22;2651;51.594;9.928;2022-09-01T04:44:37;11.80;83.00
5258;DHT22;2651;51.594;9.928;2022-09-01T04:45:40;11.90;81.20
5258;DHT22;2651;51.594;9.928;2022-09-01T04:46:44;11.90;77.20
5258;DHT22;2651;51.594;9.928;2022-09-01T04:47:48;11.90;73.00
5258;DHT22;2651;51.594;9.928;2022-09-01T04:48:51;11.90;70.80
5258;DHT22;2651;51.594;9.928;2022-09-01T04:49:53;11.90;69.00
5258;DHT22;2651;51.594;9.928;2022-09-01T04:50:58;11.90;66.10
5258;DHT22;2651;51.594;9.928;2022-09-01T04:52:00;11.90;68.50
5258;DHT22;2651;51.594;9.928;2022-09-01T04:53:03;11.90;69.40
5258;DHT22;2651;51.594;9.928;2022-09-01T04:54:06;11.80;77.50
5258;DHT22;2651;51.594;9.928;2022-09-01T04:55:12;11.80;76.70
5258;DHT22;2651;51.594;9.928;2022-09-01T04:56:20;11.80;83.50
5258;DHT22;2651;51.594;9.928;2022-09-01T04:57:23;11.80;84.90
5258;DHT22;2651;51.594;9.928;2022-09-01T04:58:30;11.80;82.60
5258;DHT22;2651;51.594;9.928;2022-09-01T04:59:32;11.80;81.30
5258;DHT22;2651;51.594;9.928;2022-09-01T05:00:34;11.80;85.10
5258;DHT22;2651;51.594;9.928;2022-09-01T05:01:36;11.80;85.10
5258;DHT22;2651;51.594;9.928;2022-09-01T05:02:44;11.80;73.60
5258;DHT22;2651;51.594;9.928;2022-09-01T05:03:48;11.70;68.90
5258;DHT22;2651;51.594;9.928;2022-09-01T05:04:56;11.70;92.90
5258;DHT22;2651;51.594;9.928;2022-09-01T05:05:59;11.70;94.10
5258;DHT22;2651;51.594;9.928;2022-09-01T05:07:04;11.80;93.30
5258;DHT22;2651;51.594;9.928;2022-09-01T05:08:06;11.80;90.80
5258;DHT22;2651;51.594;9.928;2022-09-01T05:09:09;11.80;88.30
5258;DHT22;2651;51.594;9.928;2022-09-01T05:10:12;11.80;83.80
5258;DHT22;2651;51.594;9.928;2022-09-01T05:11:14;11.80;81.80
5258;DHT22;2651;51.594;9.928;2022-09-01T05:12:19;11.90;77.40
5258;DHT22;2651;51.594;9.928;2022-09-01T05:13:23;11.80;78.20
5258;DHT22;2651;51.594;9.928;2022-09-01T05:14:27;11.90;77.90
5258;DHT22;2651;51.594;9.928;2022-09-01T05:15:29;11.90;77.00
5258;DHT22;2651;51.594;9.928;2022-09-01T05:16:32;11.90;74.10
5258;DHT22;2651;51.594;9.928;2022-09-01T05:17:35;11.90;75.50
5258;DHT22;2651;51.594;9.928;2022-09-01T05:18:39;11.90;75.40
5258;DHT22;2651;51.594;9.928;2022-09-01T05:19:43;11.90;83.30
5258;DHT22;2651;51.594;9.928;2022-09-01T05:20:49;11.90;79.30
5258;DHT22;2651;51.594;9.928;2022-09-01T05:21:51;11.80;66.10
5258;DHT22;2651;51.594;9.928;2022-09-01T05:22:55;11.80;88.30
5258;DHT22;2651;51.594;9.928;2022-09-01T05:23:58;11.70;89.80
5258;DHT22;2651;51.594;9.928;2022-09-01T05:25:01;11.80;98.50
5258;DHT22;2651;51.594;9.928;2022-09-01T05:26:14;11.80;96.60
5258;DHT22;2651;51.594;9.928;2022-09-01T05:27:17;11.80;95.50
5258;DHT22;2651;51.594;9.928;2022-09-01T05:28:20;11.80;95.80
5258;DHT22;2651;51.594;9.928;2022-09-01T05:29:26;11.80;94.30
5258;DHT22;2651;51.594;9.928;2022-09-01T05:30:28;11.90;91.70
5258;DHT22;2651;51.594;9.928;2022-09-01T05:31:30;11.90;90.40
5258;DHT22;2651;51.594;9.928;2022-09-01T05:32:35;12.00;83.30
5258;DHT22;2651;51.594;9.928;2022-09-01T05:33:39;12.00;81.70
5258;DHT22;2651;51.594;9.928;2022-09-01T05:34:46;12.10;80.70
5258;DHT22;2651;51.594;9.928;2022-09-01T05:35:54;12.10;76.00
5258;DHT22;2651;51.594;9.928;2022-09-01T05:36:57;12.10;74.40
5258;DHT22;2651;51.594;9.928;2022-09-01T05:38:00;12.20;72.60
5258;DHT22;2651;51.594;9.928;2022-09-01T05:39:03;12.20;70.40
5258;DHT22;2651;51.594;9.928;2022-09-01T05:40:07;12.20;71.60
5258;DHT22;2651;51.594;9.928;2022-09-01T05:41:15;12.30;67.60
5258;DHT22;2651;51.594;9.928;2022-09-01T05:42:17;12.30;67.80
5258;DHT22;2651;51.594;9.928;2022-09-01T05:43:18;12.40;65.80
5258;DHT22;2651;51.594;9.928;2022-09-01T05:44:21;12.40;60.20
5258;DHT22;2651;51.594;9.928;2022-09-01T05:45:23;12.30;54.50
5258;DHT22;2651;51.594;9.928;2022-09-01T05:46:27;12.20;60.90
5258;DHT22;2651;51.594;9.928;2022-09-01T05:47:29;12.10;63.50
5258;DHT22;2651;51.594;9.928;2022-09-01T05:48:31;12.00;75.80
5258;DHT22;2651;51.594;9.928;2022-09-01T05:49:37;12.00;83.90
5258;DHT22;2651;51.594;9.928;2022-09-01T05:50:41;12.10;93.00
5258;DHT22;2651;51.594;9.928;2022-09-01T05:51:48;12.20;89.50
5258;DHT22;2651;51.594;9.928;2022-09-01T05:52:51;12.10;80.30
5258;DHT22;2651;51.594;9.928;2022-09-01T05:53:55;12.10;89.60
5258;DHT22;2651;51.594;9.928;2022-09-01T05:55:00;12.00;92.90
5258;DHT22;2651;51.594;9.928;2022-09-01T05:56:06;12.00;99.90
5258;DHT22;2651;51.594;9.928;2022-09-01T05:57:08;12.10;99.90
5258;DHT22;2651;51.594;9.928;2022-09-01T05:58:33;12.20;96.90
5258;DHT22;2651;51.594;9.928;2022-09-01T06:00:07;12.40;91.40
5258;DHT22;2651;51.594;9.928;2022-09-01T06:01:21;12.50;70.90
5258;DHT22;2651;51.594;9.928;2022-09-01T06:02:24;12.50;77.30
5258;DHT22;2651;51.594;9.928;2022-09-01T06:03:28;12.60;76.00
5258;DHT22;2651;51.594;9.928;2022-09-01T06:04:38;12.70;78.70
5258;DHT22;2651;51.594;9.928;2022-09-01T06:05:44;12.80;70.60
5258;DHT22;2651;51.594;9.928;2022-09-01T06:06:53;12.70;49.20
5258;DHT22;2651;51.594;9.928;2022-09-01T06:08:08;12.80;54.80
5258;DHT22;2651;51.594;9.928;2022-09-01T06:09:12;12.80;55.40
5258;DHT22;2651;51.594;9.928;2022-09-01T06:10:16;12.70;50.40
5258;DHT22;2651;51.594;9.928;2022-09-01T06:11:18;12.60;63.40
5258;DHT22;2651;51.594;9.928;2022-09-01T06:12:20;12.70;71.50
5258;DHT22;2651;51.594;9.928;2022-09-01T06:13:24;12.80;70.20
5258;DHT22;2651;51.594;9.928;2022-09-01T06:14:27;12.80;68.90
5258;DHT22;2651;51.594;9.928;2022-09-01T06:15:29;12.90;62.40
5258;DHT22;2651;51.594;9.928;2022-09-01T06:16:31;13.00;56.10
5258;DHT22;2651;51.594;9.928;2022-09-01T06:17:33;13.20;49.60
5258;DHT22;2651;51.594;9.928;2022-09-01T06:18:37;13.20;46.10
5258;DHT22;2651;51.594;9.928;2022-09-01T06:19:39;13.20;40.10
5258;DHT22;2651;51.594;9.928;2022-09-01T06:20:42;13.30;42.00
5258;DHT22;2651;51.594;9.928;2022-09-01T06:21:44;13.40;40.50
5258;DHT22;2651;51.594;9.928;2022-09-01T06:22:46;13.30;28.40
5258;DHT22;2651;51.594;9.928;2022-09-01T06:23:47;13.20;32.40
5258;DHT22;2651;51.594;9.928;2022-09-01T06:24:54;13.10;46.70
5258;DHT22;2651;51.594;9.928;2022-09-01T06:26:03;13.20;54.20
5258;DHT22;2651;51.594;9.928;2022-09-01T06:27:07;13.20;52.40
5258;DHT22;2651;51.594;9.928;2022-09-01T06:28:15;13.20;54.60
5258;DHT22;2651;51.594;9.928;2022-09-01T06:29:17;13.30;56.70
5258;DHT22;2651;51.594;9.928;2022-09-01T06:30:20;13.30;57.10
5258;DHT22;2651;51.594;9.928;2022-09-01T06:31:27;13.40;57.70
5258;DHT22;2651;51.594;9.928;2022-09-01T06:32:29;13.40;53.60
5258;DHT22;2651;51.594;9.928;2022-09-01T06:33:30;13.30;50.80
5258;DHT22;2651;51.594;9.928;2022-09-01T06:34:32;13.20;54.10
5258;DHT22;2651;51.594;9.928;2022-09-01T06:35:36;13.10;66.40
5258;DHT22;2651;51.594;9.928;2022-09-01T06:36:39;13.10;73.20
5258;DHT22;2651;51.594;9.928;2022-09-01T06:37:42;13.10;83.40
5258;DHT22;2651;51.594;9.928;2022-09-01T06:38:44;13.10;92.50
5258;DHT22;2651;51.594;9.928;2022-09-01T06:39:48;13.30;90.50
5258;DHT22;2651;51.594;9.928;2022-09-01T06:41:02;13.30;85.30
5258;DHT22;2651;51.594;9.928;2022-09-01T06:42:04;13.40;78.90
5258;DHT22;2651;51.594;9.928;2022-09-01T06:43:07;13.50;70.40
5258;DHT22;2651;51.594;9.928;2022-09-01T06:44:13;13.40;67.00
5258;DHT22;2651;51.594;9.928;2022-09-01T06:45:16;13.40;75.50
5258;DHT22;2651;51.594;9.928;2022-09-01T06:46:20;13.40;78.60
5258;DHT22;2651;51.594;9.928;2022-09-01T06:47:22;13.40;79.70
5258;DHT22;2651;51.594;9.928;2022-09-01T06:48:24;13.50;79.00
5258;DHT22;2651;51.594;9.928;2022-09-01T06:49:26;13.60;71.50
5258;DHT22;2651;51.594;9.928;2022-09-01T06:50:35;13.60;74.30
5258;DHT22;2651;51.594;9.928;2022-09-01T06:51:59;13.60;71.70
5258;DHT22;2651;51.594;9.928;2022-09-01T06:53:01;13.70;72.00
5258;DHT22;2651;51.594;9.928;2022-09-01T06:54:30;13.80;74.40
5258;DHT22;2651;51.594;9.928;2022-09-01T06:55:37;13.90;66.00
5258;DHT22;2651;51.594;9.928;2022-09-01T06:56:39;13.90;67.10
5258;DHT22;2651;51.594;9.928;2022-09-01T06:58:00;14.00;59.70
5258;DHT22;2651;51.594;9.928;2022-09-01T06:59:07;14.10;54.30
5258;DHT22;2651;51.594;9.928;2022-09-01T07:00:12;14.20;51.50
5258;DHT22;2651;51.594;9.928;2022-09-01T07:01:21;14.20;42.70
5258;DHT22;2651;51.594;9.928;2022-09-01T07:02:24;14.20;44.70
5258;DHT22;2651;51.594;9.928;2022-09-01T07:03:28;14.20;49.20
5258;DHT22;2651;51.594;9.928;2022-09-01T07:04:29;14.30;39.30
5258;DHT22;2651;51.594;9.928;2022-09-01T07:05:32;14.30;41.30